sensor_id;sensor_type;location;lat;lon;timestamp;P1;durP1;ratioP1;P2;durP2;ratioP2
45274;SDS011;31019;43.780;25.948;2023-04-24T00:01:42;52.05;;;47.67;;
45274;SDS011;31019;43.780;25.948;2023-04-24T00:07:55;52.08;;;47.58;;
45274;SDS011;31019;43.780;25.948;2023-04-24T00:12:49;56.83;;;51.67;;
45274;SDS011;31019;43.780;25.948;2023-04-24T00:17:03;61.72;;;51.75;;
45274;SDS011;31019;43.780;25.948;2023-04-24T00:22:56;261.45;;;102.93;;
45274;SDS011;31019;43.780;25.948;2023-04-24T00:25:54;157.90;;;75.65;;
45274;SDS011;31019;43.780;25.948;2023-04-24T00:28:40;127.72;;;67.38;;
45274;SDS011;31019;43.780;25.948;2023-04-24T00:31:32;70.85;;;56.35;;
45274;SDS011;31019;43.780;25.948;2023-04-24T00:37:27;87.18;;;60.42;;
45274;SDS011;31019;43.780;25.948;2023-04-24T00:40:31;74.28;;;66.25;;
45274;SDS011;31019;43.780;25.948;2023-04-24T00:43:16;58.25;;;52.50;;
45274;SDS011;31019;43.780;25.948;2023-04-24T00:45:58;61.80;;;55.58;;
45274;SDS011;31019;43.780;25.948;2023-04-24T00:48:47;60.72;;;55.35;;
45274;SDS011;31019;43.780;25.948;2023-04-24T00:51:46;61.78;;;56.35;;
45274;SDS011;31019;43.780;25.948;2023-04-24T00:57:33;54.90;;;49.17;;
45274;SDS011;31019;43.780;25.948;2023-04-24T01:07:00;62.20;;;55.85;;
45274;SDS011;31019;43.780;25.948;2023-04-24T01:10:55;53.95;;;48.33;;
45274;SDS011;31019;43.780;25.948;2023-04-24T01:16:13;50.80;;;46.22;;
45274;SDS011;31019;43.780;25.948;2023-04-24T01:19:06;48.20;;;44.00;;
45274;SDS011;31019;43.780;25.948;2023-04-24T01:25:35;49.13;;;44.28;;
45274;SDS011;31019;43.780;25.948;2023-04-24T01:28:24;55.28;;;50.17;;
45274;SDS011;31019;43.780;25.948;2023-04-24T01:31:09;49.97;;;45.25;;
45274;SDS011;31019;43.780;25.948;2023-04-24T01:34:16;51.78;;;46.92;;
45274;SDS011;31019;43.780;25.948;2023-04-24T01:37:22;54.10;;;49.80;;
45274;SDS011;31019;43.780;25.948;2023-04-24T01:40:10;49.53;;;45.28;;
45274;SDS011;31019;43.780;25.948;2023-04-24T01:46:06;42.42;;;38.67;;
45274;SDS011;31019;43.780;25.948;2023-04-24T01:51:31;56.00;;;50.72;;
45274;SDS011;31019;43.780;25.948;2023-04-24T01:54:21;52.08;;;47.38;;
45274;SDS011;31019;43.780;25.948;2023-04-24T01:57:25;62.15;;;56.85;;
45274;SDS011;31019;43.780;25.948;2023-04-24T02:10:10;55.72;;;51.13;;
45274;SDS011;31019;43.780;25.948;2023-04-24T02:13:15;65.50;;;60.00;;
45274;SDS011;31019;43.780;25.948;2023-04-24T02:16:13;65.80;;;60.03;;
45274;SDS011;31019;43.780;25.948;2023-04-24T02:32:09;56.13;;;51.60;;
45274;SDS011;31019;43.780;25.948;2023-04-24T02:34:41;56.95;;;51.67;;
45274;SDS011;31019;43.780;25.948;2023-04-24T02:37:48;64.32;;;58.35;;
45274;SDS011;31019;43.780;25.948;2023-04-24T02:40:52;56.70;;;51.47;;
45274;SDS011;31019;43.780;25.948;2023-04-24T02:44:05;54.50;;;49.33;;
45274;SDS011;31019;43.780;25.948;2023-04-24T02:47:00;51.25;;;46.65;;
45274;SDS011;31019;43.780;25.948;2023-04-24T02:49:53;48.60;;;43.85;;
45274;SDS011;31019;43.780;25.948;2023-04-24T02:53:04;48.33;;;43.65;;
45274;SDS011;31019;43.780;25.948;2023-04-24T02:55:58;47.72;;;43.47;;
45274;SDS011;31019;43.780;25.948;2023-04-24T02:58:39;49.28;;;44.83;;
45274;SDS011;31019;43.780;25.948;2023-04-24T03:10:57;43.30;;;38.53;;
45274;SDS011;31019;43.780;25.948;2023-04-24T03:14:08;49.42;;;44.50;;
45274;SDS011;31019;43.780;25.948;2023-04-24T03:20:14;41.63;;;37.47;;
45274;SDS011;31019;43.780;25.948;2023-04-24T03:22:57;39.75;;;36.15;;
45274;SDS011;31019;43.780;25.948;2023-04-24T03:26:03;44.58;;;40.50;;
45274;SDS011;31019;43.780;25.948;2023-04-24T03:29:02;45.83;;;41.58;;
45274;SDS011;31019;43.780;25.948;2023-04-24T03:31:57;46.25;;;41.78;;
45274;SDS011;31019;43.780;25.948;2023-04-24T03:34:35;47.17;;;42.35;;
45274;SDS011;31019;43.780;25.948;2023-04-24T03:40:25;52.60;;;47.50;;
45274;SDS011;31019;43.780;25.948;2023-04-24T03:43:14;51.88;;;47.00;;
45274;SDS011;31019;43.780;25.948;2023-04-24T03:46:34;52.30;;;47.60;;
45274;SDS011;31019;43.780;25.948;2023-04-24T03:52:58;58.45;;;53.55;;
45274;SDS011;31019;43.780;25.948;2023-04-24T03:55:46;54.40;;;49.83;;
45274;SDS011;31019;43.780;25.948;2023-04-24T04:04:46;46.65;;;42.55;;
45274;SDS011;31019;43.780;25.948;2023-04-24T04:07:30;53.85;;;48.72;;
45274;SDS011;31019;43.780;25.948;2023-04-24T04:10:22;64.85;;;59.03;;
45274;SDS011;31019;43.780;25.948;2023-04-24T04:13:20;56.03;;;50.38;;
45274;SDS011;31019;43.780;25.948;2023-04-24T04:16:09;52.13;;;47.63;;
45274;SDS011;31019;43.780;25.948;2023-04-24T04:18:59;44.60;;;40.85;;
45274;SDS011;31019;43.780;25.948;2023-04-24T04:21:45;43.67;;;40.28;;
45274;SDS011;31019;43.780;25.948;2023-04-24T04:28:01;32.60;;;29.77;;
45274;SDS011;31019;43.780;25.948;2023-04-24T04:30:52;36.70;;;33.65;;
45274;SDS011;31019;43.780;25.948;2023-04-24T04:33:40;34.28;;;31.05;;
45274;SDS011;31019;43.780;25.948;2023-04-24T04:36:38;31.35;;;28.60;;
45274;SDS011;31019;43.780;25.948;2023-04-24T04:42:23;39.00;;;35.83;;
45274;SDS011;31019;43.780;25.948;2023-04-24T04:45:11;35.95;;;32.60;;
45274;SDS011;31019;43.780;25.948;2023-04-24T04:50:53;41.88;;;38.08;;
45274;SDS011;31019;43.780;25.948;2023-04-24T04:53:46;37.13;;;33.92;;
45274;SDS011;31019;43.780;25.948;2023-04-24T04:56:43;36.03;;;33.22;;
45274;SDS011;31019;43.780;25.948;2023-04-24T05:03:09;33.78;;;30.50;;
45274;SDS011;31019;43.780;25.948;2023-04-24T05:06:06;29.90;;;27.40;;
45274;SDS011;31019;43.780;25.948;2023-04-24T05:09:03;29.30;;;26.70;;
45274;SDS011;31019;43.780;25.948;2023-04-24T05:12:04;28.02;;;25.73;;
45274;SDS011;31019;43.780;25.948;2023-04-24T05:18:15;27.10;;;24.75;;
45274;SDS011;31019;43.780;25.948;2023-04-24T05:21:12;26.60;;;24.45;;
45274;SDS011;31019;43.780;25.948;2023-04-24T05:24:16;25.58;;;23.67;;
45274;SDS011;31019;43.780;25.948;2023-04-24T05:27:30;29.02;;;26.65;;
45274;SDS011;31019;43.780;25.948;2023-04-24T05:30:32;30.10;;;27.67;;
45274;SDS011;31019;43.780;25.948;2023-04-24T05:33:27;29.73;;;27.40;;
45274;SDS011;31019;43.780;25.948;2023-04-24T05:36:25;26.35;;;24.23;;
45274;SDS011;31019;43.780;25.948;2023-04-24T05:42:47;27.85;;;25.60;;
45274;SDS011;31019;43.780;25.948;2023-04-24T05:45:47;27.60;;;25.55;;
45274;SDS011;31019;43.780;25.948;2023-04-24T05:48:51;29.45;;;27.17;;
45274;SDS011;31019;43.780;25.948;2023-04-24T05:51:49;28.35;;;26.27;;
45274;SDS011;31019;43.780;25.948;2023-04-24T06:01:14;26.48;;;24.63;;
45274;SDS011;31019;43.780;25.948;2023-04-24T06:04:12;29.90;;;27.80;;
45274;SDS011;31019;43.780;25.948;2023-04-24T06:07:05;25.23;;;23.50;;
45274;SDS011;31019;43.780;25.948;2023-04-24T06:09:43;25.92;;;23.92;;
45274;SDS011;31019;43.780;25.948;2023-04-24T06:12:37;28.20;;;26.13;;
45274;SDS011;31019;43.780;25.948;2023-04-24T06:15:36;26.63;;;24.67;;
45274;SDS011;31019;43.780;25.948;2023-04-24T06:18:11;27.77;;;25.65;;
45274;SDS011;31019;43.780;25.948;2023-04-24T06:20:49;28.88;;;26.98;;
45274;SDS011;31019;43.780;25.948;2023-04-24T06:23:28;26.97;;;24.90;;
45274;SDS011;31019;43.780;25.948;2023-04-24T06:26:13;28.02;;;25.63;;
45274;SDS011;31019;43.780;25.948;2023-04-24T06:28:53;29.35;;;26.83;;
45274;SDS011;31019;43.780;25.948;2023-04-24T06:41:40;23.60;;;22.10;;
45274;SDS011;31019;43.780;25.948;2023-04-24T06:45:01;29.20;;;27.10;;
45274;SDS011;31019;43.780;25.948;2023-04-24T06:47:44;28.23;;;26.15;;
45274;SDS011;31019;43.780;25.948;2023-04-24T06:54:02;27.98;;;25.98;;
45274;SDS011;31019;43.780;25.948;2023-04-24T07:06:30;24.52;;;22.60;;
45274;SDS011;31019;43.780;25.948;2023-04-24T07:09:32;24.08;;;21.98;;
45274;SDS011;31019;43.780;25.948;2023-04-24T07:18:56;30.65;;;28.50;;
45274;SDS011;31019;43.780;25.948;2023-04-24T07:24:43;28.00;;;26.00;;
45274;SDS011;31019;43.780;25.948;2023-04-24T07:28:27;28.40;;;26.30;;
45274;SDS011;31019;43.780;25.948;2023-04-24T07:30:43;26.05;;;24.05;;
45274;SDS011;31019;43.780;25.948;2023-04-24T07:37:07;27.88;;;25.90;;
45274;SDS011;31019;43.780;25.948;2023-04-24T07:40:03;28.58;;;26.45;;
45274;SDS011;31019;43.780;25.948;2023-04-24T07:43:12;24.30;;;22.50;;
45274;SDS011;31019;43.780;25.948;2023-04-24T07:46:21;23.10;;;21.45;;
45274;SDS011;31019;43.780;25.948;2023-04-24T07:49:19;30.95;;;28.85;;
45274;SDS011;31019;43.780;25.948;2023-04-24T08:08:40;31.17;;;28.92;;
45274;SDS011;31019;43.780;25.948;2023-04-24T08:11:55;31.05;;;29.00;;
45274;SDS011;31019;43.780;25.948;2023-04-24T08:21:06;23.30;;;21.40;;
45274;SDS011;31019;43.780;25.948;2023-04-24T08:27:22;28.10;;;26.02;;
45274;SDS011;31019;43.780;25.948;2023-04-24T08:30:52;29.40;;;27.45;;
45274;SDS011;31019;43.780;25.948;2023-04-24T08:43:47;29.77;;;26.97;;
45274;SDS011;31019;43.780;25.948;2023-04-24T08:49:56;29.40;;;27.17;;
45274;SDS011;31019;43.780;25.948;2023-04-24T08:52:38;31.17;;;28.48;;
45274;SDS011;31019;43.780;25.948;2023-04-24T08:55:10;31.58;;;29.13;;
45274;SDS011;31019;43.780;25.948;2023-04-24T09:01:54;28.55;;;26.55;;
45274;SDS011;31019;43.780;25.948;2023-04-24T09:05:38;26.63;;;24.35;;
45274;SDS011;31019;43.780;25.948;2023-04-24T09:09:28;29.15;;;26.67;;
45274;SDS011;31019;43.780;25.948;2023-04-24T09:23:48;28.42;;;26.30;;
45274;SDS011;31019;43.780;25.948;2023-04-24T09:52:10;30.27;;;27.92;;
45274;SDS011;31019;43.780;25.948;2023-04-24T09:55:07;33.35;;;31.35;;
45274;SDS011;31019;43.780;25.948;2023-04-24T10:01:28;30.25;;;28.25;;
45274;SDS011;31019;43.780;25.948;2023-04-24T10:05:03;22.05;;;20.02;;
45274;SDS011;31019;43.780;25.948;2023-04-24T10:14:48;23.48;;;21.60;;
45274;SDS011;31019;43.780;25.948;2023-04-24T10:17:45;25.35;;;23.55;;
45274;SDS011;31019;43.780;25.948;2023-04-24T10:20:42;31.95;;;30.20;;
45274;SDS011;31019;43.780;25.948;2023-04-24T10:23:52;26.35;;;24.30;;
45274;SDS011;31019;43.780;25.948;2023-04-24T10:46:47;32.55;;;30.55;;
45274;SDS011;31019;43.780;25.948;2023-04-24T10:56:10;24.95;;;23.10;;
45274;SDS011;31019;43.780;25.948;2023-04-24T10:59:04;24.50;;;22.95;;
45274;SDS011;31019;43.780;25.948;2023-04-24T11:02:09;25.05;;;23.15;;
45274;SDS011;31019;43.780;25.948;2023-04-24T11:05:55;23.00;;;21.25;;
45274;SDS011;31019;43.780;25.948;2023-04-24T11:08:57;23.30;;;21.60;;
45274;SDS011;31019;43.780;25.948;2023-04-24T11:12:17;24.48;;;22.60;;
45274;SDS011;31019;43.780;25.948;2023-04-24T11:15:29;25.05;;;23.25;;
45274;SDS011;31019;43.780;25.948;2023-04-24T11:21:47;26.70;;;24.80;;
45274;SDS011;31019;43.780;25.948;2023-04-24T11:27:38;24.63;;;22.70;;
45274;SDS011;31019;43.780;25.948;2023-04-24T11:38:19;32.15;;;29.85;;
45274;SDS011;31019;43.780;25.948;2023-04-24T11:41:08;25.30;;;23.10;;
45274;SDS011;31019;43.780;25.948;2023-04-24T11:44:05;24.90;;;23.05;;
45274;SDS011;31019;43.780;25.948;2023-04-24T11:47:00;26.35;;;24.23;;
45274;SDS011;31019;43.780;25.948;2023-04-24T12:15:59;26.48;;;24.42;;
45274;SDS011;31019;43.780;25.948;2023-04-24T12:19:09;27.70;;;25.58;;
45274;SDS011;31019;43.780;25.948;2023-04-24T12:23:28;28.65;;;26.42;;
45274;SDS011;31019;43.780;25.948;2023-04-24T12:25:38;27.42;;;25.23;;
45274;SDS011;31019;43.780;25.948;2023-04-24T12:29:39;23.85;;;21.77;;
45274;SDS011;31019;43.780;25.948;2023-04-24T12:32:15;23.58;;;21.60;;
45274;SDS011;31019;43.780;25.948;2023-04-24T12:35:36;24.27;;;22.30;;
45274;SDS011;31019;43.780;25.948;2023-04-24T12:38:38;24.50;;;22.50;;
45274;SDS011;31019;43.780;25.948;2023-04-24T12:41:56;25.00;;;22.85;;
45274;SDS011;31019;43.780;25.948;2023-04-24T12:46:04;23.25;;;21.65;;
45274;SDS011;31019;43.780;25.948;2023-04-24T12:48:16;26.95;;;24.88;;
45274;SDS011;31019;43.780;25.948;2023-04-24T12:51:20;27.13;;;25.38;;
45274;SDS011;31019;43.780;25.948;2023-04-24T12:57:24;26.65;;;24.88;;
45274;SDS011;31019;43.780;25.948;2023-04-24T13:00:34;26.05;;;24.15;;
45274;SDS011;31019;43.780;25.948;2023-04-24T13:15:38;25.88;;;23.98;;
45274;SDS011;31019;43.780;25.948;2023-04-24T13:18:29;24.08;;;22.38;;
45274;SDS011;31019;43.780;25.948;2023-04-24T13:21:53;24.05;;;22.15;;
45274;SDS011;31019;43.780;25.948;2023-04-24T13:25:05;25.67;;;23.58;;
45274;SDS011;31019;43.780;25.948;2023-04-24T13:31:34;23.60;;;21.75;;
45274;SDS011;31019;43.780;25.948;2023-04-24T13:34:29;24.13;;;22.25;;
45274;SDS011;31019;43.780;25.948;2023-04-24T13:37:29;23.95;;;22.10;;
45274;SDS011;31019;43.780;25.948;2023-04-24T13:40:24;24.70;;;22.60;;
45274;SDS011;31019;43.780;25.948;2023-04-24T13:52:54;24.50;;;22.65;;
45274;SDS011;31019;43.780;25.948;2023-04-24T13:55:49;25.48;;;23.50;;
45274;SDS011;31019;43.780;25.948;2023-04-24T13:58:50;24.75;;;22.70;;
45274;SDS011;31019;43.780;25.948;2023-04-24T14:01:46;23.75;;;21.85;;
45274;SDS011;31019;43.780;25.948;2023-04-24T14:14:59;22.48;;;20.58;;
45274;SDS011;31019;43.780;25.948;2023-04-24T14:17:51;26.70;;;24.40;;
45274;SDS011;31019;43.780;25.948;2023-04-24T14:20:51;24.52;;;22.58;;
45274;SDS011;31019;43.780;25.948;2023-04-24T14:23:44;24.30;;;22.50;;
45274;SDS011;31019;43.780;25.948;2023-04-24T14:26:32;26.60;;;24.50;;
45274;SDS011;31019;43.780;25.948;2023-04-24T14:29:15;23.90;;;22.10;;
45274;SDS011;31019;43.780;25.948;2023-04-24T14:32:06;24.90;;;23.10;;
45274;SDS011;31019;43.780;25.948;2023-04-24T14:34:46;24.17;;;22.08;;
45274;SDS011;31019;43.780;25.948;2023-04-24T14:37:24;23.02;;;21.17;;
45274;SDS011;31019;43.780;25.948;2023-04-24T14:40:11;23.65;;;21.48;;
45274;SDS011;31019;43.780;25.948;2023-04-24T14:45:42;23.75;;;21.85;;
45274;SDS011;31019;43.780;25.948;2023-04-24T14:48:46;53.10;;;48.45;;
45274;SDS011;31019;43.780;25.948;2023-04-24T14:51:45;58.08;;;51.95;;
45274;SDS011;31019;43.780;25.948;2023-04-24T14:54:42;58.40;;;52.90;;
45274;SDS011;31019;43.780;25.948;2023-04-24T14:57:28;26.65;;;24.75;;
45274;SDS011;31019;43.780;25.948;2023-04-24T15:00:17;26.08;;;24.15;;
45274;SDS011;31019;43.780;25.948;2023-04-24T15:10:04;29.95;;;27.75;;
45274;SDS011;31019;43.780;25.948;2023-04-24T15:12:59;29.88;;;27.67;;
45274;SDS011;31019;43.780;25.948;2023-04-24T15:15:53;32.25;;;29.75;;
45274;SDS011;31019;43.780;25.948;2023-04-24T15:19:14;32.30;;;29.90;;
45274;SDS011;31019;43.780;25.948;2023-04-24T15:25:26;34.65;;;31.95;;
45274;SDS011;31019;43.780;25.948;2023-04-24T15:28:32;31.63;;;29.13;;
45274;SDS011;31019;43.780;25.948;2023-04-24T15:31:47;33.28;;;30.75;;
45274;SDS011;31019;43.780;25.948;2023-04-24T15:35:44;30.25;;;27.88;;
45274;SDS011;31019;43.780;25.948;2023-04-24T15:38:06;34.60;;;31.58;;
45274;SDS011;31019;43.780;25.948;2023-04-24T15:41:00;41.13;;;38.35;;
45274;SDS011;31019;43.780;25.948;2023-04-24T15:44:12;34.53;;;31.92;;
45274;SDS011;31019;43.780;25.948;2023-04-24T15:56:12;36.13;;;33.20;;
45274;SDS011;31019;43.780;25.948;2023-04-24T15:59:06;71.80;;;58.15;;
45274;SDS011;31019;43.780;25.948;2023-04-24T16:01:40;53.72;;;49.17;;
45274;SDS011;31019;43.780;25.948;2023-04-24T16:04:38;36.45;;;33.65;;
45274;SDS011;31019;43.780;25.948;2023-04-24T16:07:20;34.42;;;31.73;;
45274;SDS011;31019;43.780;25.948;2023-04-24T16:19:31;33.67;;;31.25;;
45274;SDS011;31019;43.780;25.948;2023-04-24T16:22:20;31.98;;;29.00;;
45274;SDS011;31019;43.780;25.948;2023-04-24T16:29:00;35.13;;;31.83;;
45274;SDS011;31019;43.780;25.948;2023-04-24T16:31:58;32.38;;;29.92;;
45274;SDS011;31019;43.780;25.948;2023-04-24T16:37:59;49.40;;;35.00;;
45274;SDS011;31019;43.780;25.948;2023-04-24T16:57:38;33.53;;;30.30;;
45274;SDS011;31019;43.780;25.948;2023-04-24T17:00:28;27.00;;;24.70;;
45274;SDS011;31019;43.780;25.948;2023-04-24T17:03:17;28.13;;;25.92;;
45274;SDS011;31019;43.780;25.948;2023-04-24T17:05:59;26.90;;;25.00;;
45274;SDS011;31019;43.780;25.948;2023-04-24T17:08:58;26.85;;;24.23;;
45274;SDS011;31019;43.780;25.948;2023-04-24T17:11:54;26.02;;;23.77;;
45274;SDS011;31019;43.780;25.948;2023-04-24T17:18:02;26.65;;;24.85;;
45274;SDS011;31019;43.780;25.948;2023-04-24T17:20:55;30.52;;;28.17;;
45274;SDS011;31019;43.780;25.948;2023-04-24T17:24:01;29.48;;;27.13;;
45274;SDS011;31019;43.780;25.948;2023-04-24T17:27:17;30.27;;;27.92;;
45274;SDS011;31019;43.780;25.948;2023-04-24T17:33:15;34.40;;;31.90;;
45274;SDS011;31019;43.780;25.948;2023-04-24T17:36:03;131.38;;;67.85;;
45274;SDS011;31019;43.780;25.948;2023-04-24T17:39:11;142.45;;;98.95;;
45274;SDS011;31019;43.780;25.948;2023-04-24T17:48:49;150.70;;;135.52;;
45274;SDS011;31019;43.780;25.948;2023-04-24T17:52:13;172.73;;;154.73;;
45274;SDS011;31019;43.780;25.948;2023-04-24T17:58:46;90.15;;;83.10;;
45274;SDS011;31019;43.780;25.948;2023-04-24T18:01:26;73.38;;;67.53;;
45274;SDS011;31019;43.780;25.948;2023-04-24T18:07:26;75.57;;;69.75;;
45274;SDS011;31019;43.780;25.948;2023-04-24T18:16:54;107.07;;;98.78;;
45274;SDS011;31019;43.780;25.948;2023-04-24T18:33:59;76.45;;;69.95;;
45274;SDS011;31019;43.780;25.948;2023-04-24T18:36:46;77.90;;;71.65;;
45274;SDS011;31019;43.780;25.948;2023-04-24T18:40:03;152.90;;;107.88;;
45274;SDS011;31019;43.780;25.948;2023-04-24T18:43:24;183.20;;;130.20;;
45274;SDS011;31019;43.780;25.948;2023-04-24T18:46:25;193.27;;;143.05;;
45274;SDS011;31019;43.780;25.948;2023-04-24T18:55:57;122.18;;;111.68;;
45274;SDS011;31019;43.780;25.948;2023-04-24T19:02:11;77.72;;;71.90;;
45274;SDS011;31019;43.780;25.948;2023-04-24T19:05:10;132.40;;;118.28;;
45274;SDS011;31019;43.780;25.948;2023-04-24T19:08:06;83.47;;;75.72;;
45274;SDS011;31019;43.780;25.948;2023-04-24T19:10:51;89.28;;;81.93;;
45274;SDS011;31019;43.780;25.948;2023-04-24T19:17:07;83.07;;;76.53;;
45274;SDS011;31019;43.780;25.948;2023-04-24T19:21:08;134.30;;;102.38;;
45274;SDS011;31019;43.780;25.948;2023-04-24T19:23:25;119.85;;;103.45;;
45274;SDS011;31019;43.780;25.948;2023-04-24T19:32:44;118.38;;;107.20;;
45274;SDS011;31019;43.780;25.948;2023-04-24T19:35:42;121.28;;;110.65;;
45274;SDS011;31019;43.780;25.948;2023-04-24T19:52:14;132.40;;;119.97;;
45274;SDS011;31019;43.780;25.948;2023-04-24T19:55:12;105.35;;;96.25;;
45274;SDS011;31019;43.780;25.948;2023-04-24T20:01:30;91.05;;;83.22;;
45274;SDS011;31019;43.780;25.948;2023-04-24T20:04:40;97.68;;;89.18;;
45274;SDS011;31019;43.780;25.948;2023-04-24T20:07:29;110.53;;;99.05;;
45274;SDS011;31019;43.780;25.948;2023-04-24T20:10:20;155.38;;;127.75;;
45274;SDS011;31019;43.780;25.948;2023-04-24T20:13:22;124.53;;;113.10;;
45274;SDS011;31019;43.780;25.948;2023-04-24T20:16:27;127.57;;;116.75;;
45274;SDS011;31019;43.780;25.948;2023-04-24T20:19:23;138.40;;;127.68;;
45274;SDS011;31019;43.780;25.948;2023-04-24T20:22:31;151.77;;;139.60;;
45274;SDS011;31019;43.780;25.948;2023-04-24T20:25:43;136.35;;;125.45;;
45274;SDS011;31019;43.780;25.948;2023-04-24T20:28:25;116.07;;;107.28;;
45274;SDS011;31019;43.780;25.948;2023-04-24T20:31:07;93.03;;;85.60;;
45274;SDS011;31019;43.780;25.948;2023-04-24T20:34:10;71.18;;;65.25;;
45274;SDS011;31019;43.780;25.948;2023-04-24T20:36:51;65.03;;;59.33;;
45274;SDS011;31019;43.780;25.948;2023-04-24T20:39:36;51.20;;;46.75;;
45274;SDS011;31019;43.780;25.948;2023-04-24T20:42:28;46.50;;;42.40;;
45274;SDS011;31019;43.780;25.948;2023-04-24T20:45:20;46.63;;;42.72;;
45274;SDS011;31019;43.780;25.948;2023-04-24T20:48:10;49.67;;;45.58;;
45274;SDS011;31019;43.780;25.948;2023-04-24T20:51:20;51.53;;;47.22;;
45274;SDS011;31019;43.780;25.948;2023-04-24T20:54:14;51.63;;;47.25;;
45274;SDS011;31019;43.780;25.948;2023-04-24T20:57:04;51.45;;;47.45;;
45274;SDS011;31019;43.780;25.948;2023-04-24T21:06:28;56.53;;;52.13;;
45274;SDS011;31019;43.780;25.948;2023-04-24T21:09:14;53.90;;;49.10;;
45274;SDS011;31019;43.780;25.948;2023-04-24T21:15:50;66.57;;;60.58;;
45274;SDS011;31019;43.780;25.948;2023-04-24T21:21:56;81.80;;;74.25;;
45274;SDS011;31019;43.780;25.948;2023-04-24T21:24:51;78.20;;;71.30;;
45274;SDS011;31019;43.780;25.948;2023-04-24T21:28:31;83.55;;;76.45;;
45274;SDS011;31019;43.780;25.948;2023-04-24T21:34:47;84.20;;;76.65;;
45274;SDS011;31019;43.780;25.948;2023-04-24T21:38:11;90.35;;;82.65;;
45274;SDS011;31019;43.780;25.948;2023-04-24T21:40:58;91.30;;;83.80;;
45274;SDS011;31019;43.780;25.948;2023-04-24T21:43:52;96.10;;;87.93;;
45274;SDS011;31019;43.780;25.948;2023-04-24T21:46:45;99.07;;;90.57;;
45274;SDS011;31019;43.780;25.948;2023-04-24T21:56:28;112.78;;;102.88;;
45274;SDS011;31019;43.780;25.948;2023-04-24T21:59:23;105.82;;;96.60;;
45274;SDS011;31019;43.780;25.948;2023-04-24T22:07:53;106.90;;;97.47;;
45274;SDS011;31019;43.780;25.948;2023-04-24T22:12:12;117.57;;;107.63;;
45274;SDS011;31019;43.780;25.948;2023-04-24T22:15:10;108.07;;;98.47;;
45274;SDS011;31019;43.780;25.948;2023-04-24T22:18:22;123.22;;;112.32;;
45274;SDS011;31019;43.780;25.948;2023-04-24T22:21:14;128.48;;;117.72;;
45274;SDS011;31019;43.780;25.948;2023-04-24T22:24:16;137.32;;;125.95;;
45274;SDS011;31019;43.780;25.948;2023-04-24T22:27:29;121.65;;;111.13;;
45274;SDS011;31019;43.780;25.948;2023-04-24T22:30:29;132.57;;;121.03;;
45274;SDS011;31019;43.780;25.948;2023-04-24T22:33:35;125.00;;;114.38;;
45274;SDS011;31019;43.780;25.948;2023-04-24T22:36:43;187.43;;;173.98;;
45274;SDS011;31019;43.780;25.948;2023-04-24T22:42:32;159.95;;;147.05;;
45274;SDS011;31019;43.780;25.948;2023-04-24T22:45:46;135.02;;;123.63;;
45274;SDS011;31019;43.780;25.948;2023-04-24T22:48:58;143.75;;;131.85;;
45274;SDS011;31019;43.780;25.948;2023-04-24T22:51:49;194.43;;;180.07;;
45274;SDS011;31019;43.780;25.948;2023-04-24T23:01:07;166.07;;;151.68;;
45274;SDS011;31019;43.780;25.948;2023-04-24T23:07:32;187.40;;;170.70;;
45274;SDS011;31019;43.780;25.948;2023-04-24T23:10:28;196.63;;;179.05;;
45274;SDS011;31019;43.780;25.948;2023-04-24T23:13:29;262.77;;;241.77;;
45274;SDS011;31019;43.780;25.948;2023-04-24T23:16:19;213.77;;;196.25;;
45274;SDS011;31019;43.780;25.948;2023-04-24T23:19:24;160.77;;;146.30;;
45274;SDS011;31019;43.780;25.948;2023-04-24T23:22:11;183.93;;;167.32;;
45274;SDS011;31019;43.780;25.948;2023-04-24T23:28:12;191.10;;;174.63;;
45274;SDS011;31019;43.780;25.948;2023-04-24T23:31:21;214.02;;;195.32;;
45274;SDS011;31019;43.780;25.948;2023-04-24T23:34:05;188.35;;;171.70;;
45274;SDS011;31019;43.780;25.948;2023-04-24T23:37:27;156.05;;;142.63;;
45274;SDS011;31019;43.780;25.948;2023-04-24T23:40:24;177.90;;;162.85;;
45274;SDS011;31019;43.780;25.948;2023-04-24T23:44:41;171.60;;;157.30;;
45274;SDS011;31019;43.780;25.948;2023-04-24T23:50:04;328.73;;;301.50;;
45274;SDS011;31019;43.780;25.948;2023-04-24T23:56:20;340.85;;;312.90;;
45274;SDS011;31019;43.780;25.948;2023-04-24T23:59:20;334.90;;;306.55;;
